sensor_id;sensor_type;location;lat;lon;timestamp;temperature;humidity
22288;DHT22;11312;51.464;6.968;2023-03-01T00:01:24;-0.40;1.00
22288;DHT22;11312;51.464;6.968;2023-03-01T00:03:50;-0.30;1.00
22288;DHT22;11312;51.464;6.968;2023-03-01T00:06:16;-0.30;99.90
22288;DHT22;11312;51.464;6.968;2023-03-01T00:08:42;-0.30;99.90
22288;DHT22;11312;51.464;6.968;2023-03-01T00:11:24;-0.40;99.90
22288;DHT22;11312;51.464;6.968;2023-03-01T00:13:53;-0.40;1.00
22288;DHT22;11312;51.464;6.968;2023-03-01T00:16:25;-0.40;99.90
22288;DHT22;11312;51.464;6.968;2023-03-01T00:18:54;-0.40;1.00
22288;DHT22;11312;51.464;6.968;2023-03-01T00:21:21;-0.60;1.00
22288;DHT22;11312;51.464;6.968;2023-03-01T00:23:47;-0.60;1.00
22288;DHT22;11312;51.464;6.968;2023-03-01T00:26:14;-0.50;1.00
22288;DHT22;11312;51.464;6.968;2023-03-01T00:28:42;-0.60;99.90
22288;DHT22;11312;51.464;6.968;2023-03-01T00:31:12;-0.50;99.90
22288;DHT22;11312;51.464;6.968;2023-03-01T00:33:39;-0.70;1.00
22288;DHT22;11312;51.464;6.968;2023-03-01T00:36:05;-0.70;99.90
22288;DHT22;11312;51.464;6.968;2023-03-01T00:38:35;-0.70;99.90
22288;DHT22;11312;51.464;6.968;2023-03-01T00:41:15;-0.60;99.90
22288;DHT22;11312;51.464;6.968;2023-03-01T00:43:43;-0.60;42.20
22288;DHT22;11312;51.464;6.968;2023-03-01T00:46:12;-0.70;99.90
22288;DHT22;11312;51.464;6.968;2023-03-01T00:48:39;-0.60;99.90
22288;DHT22;11312;51.464;6.968;2023-03-01T00:51:08;-0.60;99.90
22288;DHT22;11312;51.464;6.968;2023-03-01T00:53:34;-0.80;99.90
22288;DHT22;11312;51.464;6.968;2023-03-01T00:56:00;-0.70;99.90
22288;DHT22;11312;51.464;6.968;2023-03-01T00:58:26;-0.90;1.00
22288;DHT22;11312;51.464;6.968;2023-03-01T01:00:52;-0.90;1.00
22288;DHT22;11312;51.464;6.968;2023-03-01T01:03:18;-0.80;1.00
22288;DHT22;11312;51.464;6.968;2023-03-01T01:05:44;-0.90;1.00
22288;DHT22;11312;51.464;6.968;2023-03-01T01:08:10;-1.00;1.00
22288;DHT22;11312;51.464;6.968;2023-03-01T01:10:35;-1.00;1.00
22288;DHT22;11312;51.464;6.968;2023-03-01T01:13:01;-1.00;1.00
22288;DHT22;11312;51.464;6.968;2023-03-01T01:15:27;-1.10;1.00
22288;DHT22;11312;51.464;6.968;2023-03-01T01:17:52;-1.00;5.40
22288;DHT22;11312;51.464;6.968;2023-03-01T01:20:18;-1.00;1.00
22288;DHT22;11312;51.464;6.968;2023-03-01T01:22:44;-1.00;1.00
22288;DHT22;11312;51.464;6.968;2023-03-01T01:25:09;-1.00;1.00
22288;DHT22;11312;51.464;6.968;2023-03-01T01:27:36;-1.10;1.00
22288;DHT22;11312;51.464;6.968;2023-03-01T01:30:02;-1.10;1.00
22288;DHT22;11312;51.464;6.968;2023-03-01T01:32:28;-1.10;1.00
22288;DHT22;11312;51.464;6.968;2023-03-01T01:34:54;-1.30;1.00
22288;DHT22;11312;51.464;6.968;2023-03-01T01:37:20;-1.20;1.00
22288;DHT22;11312;51.464;6.968;2023-03-01T01:39:46;-1.20;1.00
22288;DHT22;11312;51.464;6.968;2023-03-01T01:42:17;-1.10;1.00
22288;DHT22;11312;51.464;6.968;2023-03-01T01:44:46;-1.20;1.00
22288;DHT22;11312;51.464;6.968;2023-03-01T01:47:18;-1.20;1.00
22288;DHT22;11312;51.464;6.968;2023-03-01T01:49:54;-1.30;1.00
22288;DHT22;11312;51.464;6.968;2023-03-01T01:52:24;-1.20;1.00
22288;DHT22;11312;51.464;6.968;2023-03-01T01:54:54;-1.20;1.00
22288;DHT22;11312;51.464;6.968;2023-03-01T01:57:38;-1.30;1.00
22288;DHT22;11312;51.464;6.968;2023-03-01T02:00:09;-1.20;1.00
22288;DHT22;11312;51.464;6.968;2023-03-01T02:02:36;-1.30;1.00
22288;DHT22;11312;51.464;6.968;2023-03-01T02:05:53;-1.30;1.00
22288;DHT22;11312;51.464;6.968;2023-03-01T02:07:53;-1.40;1.00
22288;DHT22;11312;51.464;6.968;2023-03-01T02:10:20;-1.40;1.00
22288;DHT22;11312;51.464;6.968;2023-03-01T02:12:46;-1.40;1.00
22288;DHT22;11312;51.464;6.968;2023-03-01T02:15:11;-1.40;1.00
22288;DHT22;11312;51.464;6.968;2023-03-01T02:17:37;-1.30;1.00
22288;DHT22;11312;51.464;6.968;2023-03-01T02:22:53;-1.40;1.00
22288;DHT22;11312;51.464;6.968;2023-03-01T02:25:30;-1.50;1.00
22288;DHT22;11312;51.464;6.968;2023-03-01T02:30:33;-1.40;1.00
22288;DHT22;11312;51.464;6.968;2023-03-01T02:33:00;-1.30;1.00
22288;DHT22;11312;51.464;6.968;2023-03-01T02:35:31;-1.40;1.00
22288;DHT22;11312;51.464;6.968;2023-03-01T02:37:58;-1.40;1.00
22288;DHT22;11312;51.464;6.968;2023-03-01T02:40:28;-1.40;1.00
22288;DHT22;11312;51.464;6.968;2023-03-01T02:42:57;-1.40;1.00
22288;DHT22;11312;51.464;6.968;2023-03-01T02:45:24;-1.50;1.00
22288;DHT22;11312;51.464;6.968;2023-03-01T02:47:53;-1.60;1.00
22288;DHT22;11312;51.464;6.968;2023-03-01T02:50:22;-1.60;1.00
22288;DHT22;11312;51.464;6.968;2023-03-01T02:53:29;-1.60;1.00
22288;DHT22;11312;51.464;6.968;2023-03-01T02:55:57;-1.50;1.00
22288;DHT22;11312;51.464;6.968;2023-03-01T02:58:24;-1.50;1.00
22288;DHT22;11312;51.464;6.968;2023-03-01T03:00:50;-2.50;1.00
22288;DHT22;11312;51.464;6.968;2023-03-01T03:03:20;-2.50;1.00
22288;DHT22;11312;51.464;6.968;2023-03-01T03:05:47;-1.60;1.00
22288;DHT22;11312;51.464;6.968;2023-03-01T03:08:14;-1.60;1.00
22288;DHT22;11312;51.464;6.968;2023-03-01T03:10:42;-1.60;2.20
22288;DHT22;11312;51.464;6.968;2023-03-01T03:13:12;-1.60;57.90
22288;DHT22;11312;51.464;6.968;2023-03-01T03:15:39;-1.70;12.40
22288;DHT22;11312;51.464;6.968;2023-03-01T03:18:08;-1.70;59.20
22288;DHT22;11312;51.464;6.968;2023-03-01T03:20:37;-1.70;77.50
22288;DHT22;11312;51.464;6.968;2023-03-01T03:23:05;-1.70;92.50
22288;DHT22;11312;51.464;6.968;2023-03-01T03:25:30;-1.70;92.60
22288;DHT22;11312;51.464;6.968;2023-03-01T03:27:57;-1.60;92.60
22288;DHT22;11312;51.464;6.968;2023-03-01T03:30:29;-1.80;1.00
22288;DHT22;11312;51.464;6.968;2023-03-01T03:32:55;-1.90;1.00
22288;DHT22;11312;51.464;6.968;2023-03-01T03:35:26;-1.80;1.00
22288;DHT22;11312;51.464;6.968;2023-03-01T03:37:58;-1.70;99.90
22288;DHT22;11312;51.464;6.968;2023-03-01T03:40:40;-1.80;1.00
22288;DHT22;11312;51.464;6.968;2023-03-01T03:43:32;-1.80;1.00
22288;DHT22;11312;51.464;6.968;2023-03-01T03:45:58;-1.80;1.00
22288;DHT22;11312;51.464;6.968;2023-03-01T03:48:25;-1.80;1.00
22288;DHT22;11312;51.464;6.968;2023-03-01T03:50:53;-1.90;1.00
22288;DHT22;11312;51.464;6.968;2023-03-01T03:53:20;-1.90;1.00
22288;DHT22;11312;51.464;6.968;2023-03-01T03:55:45;-1.90;1.00
22288;DHT22;11312;51.464;6.968;2023-03-01T03:58:15;-1.90;1.00
22288;DHT22;11312;51.464;6.968;2023-03-01T04:00:44;-1.90;1.00
22288;DHT22;11312;51.464;6.968;2023-03-01T04:03:11;-1.80;1.00
22288;DHT22;11312;51.464;6.968;2023-03-01T04:05:39;-1.90;1.00
22288;DHT22;11312;51.464;6.968;2023-03-01T04:08:05;-2.10;1.00
22288;DHT22;11312;51.464;6.968;2023-03-01T04:10:35;-2.10;1.00
22288;DHT22;11312;51.464;6.968;2023-03-01T04:13:02;-2.00;1.00
22288;DHT22;11312;51.464;6.968;2023-03-01T04:15:28;-2.20;1.00
22288;DHT22;11312;51.464;6.968;2023-03-01T04:17:54;-2.20;1.00
22288;DHT22;11312;51.464;6.968;2023-03-01T04:20:23;-2.20;1.00
22288;DHT22;11312;51.464;6.968;2023-03-01T04:22:58;-2.20;1.00
22288;DHT22;11312;51.464;6.968;2023-03-01T04:25:25;-2.10;1.00
22288;DHT22;11312;51.464;6.968;2023-03-01T04:27:50;-2.20;1.00
22288;DHT22;11312;51.464;6.968;2023-03-01T04:30:16;-2.30;1.00
22288;DHT22;11312;51.464;6.968;2023-03-01T04:32:42;-2.30;1.00
22288;DHT22;11312;51.464;6.968;2023-03-01T04:35:08;-2.30;1.00
22288;DHT22;11312;51.464;6.968;2023-03-01T04:37:34;-2.40;1.00
22288;DHT22;11312;51.464;6.968;2023-03-01T04:40:03;-2.30;1.00
22288;DHT22;11312;51.464;6.968;2023-03-01T04:42:41;-2.30;1.00
22288;DHT22;11312;51.464;6.968;2023-03-01T04:45:08;-2.20;1.00
22288;DHT22;11312;51.464;6.968;2023-03-01T04:47:42;-2.20;1.00
22288;DHT22;11312;51.464;6.968;2023-03-01T04:50:11;-2.10;1.00
22288;DHT22;11312;51.464;6.968;2023-03-01T04:52:37;-2.10;1.00
22288;DHT22;11312;51.464;6.968;2023-03-01T04:55:03;-2.10;1.00
22288;DHT22;11312;51.464;6.968;2023-03-01T04:57:30;-2.10;1.00
22288;DHT22;11312;51.464;6.968;2023-03-01T04:59:56;-2.20;1.00
22288;DHT22;11312;51.464;6.968;2023-03-01T05:02:21;-2.20;1.00
22288;DHT22;11312;51.464;6.968;2023-03-01T05:04:47;-2.40;1.00
22288;DHT22;11312;51.464;6.968;2023-03-01T05:07:13;-2.40;1.00
22288;DHT22;11312;51.464;6.968;2023-03-01T05:09:47;-2.40;1.00
22288;DHT22;11312;51.464;6.968;2023-03-01T05:12:14;-2.30;1.00
22288;DHT22;11312;51.464;6.968;2023-03-01T05:14:41;-2.40;2.80
22288;DHT22;11312;51.464;6.968;2023-03-01T05:17:07;-2.30;47.70
22288;DHT22;11312;51.464;6.968;2023-03-01T05:19:32;-2.30;99.90
22288;DHT22;11312;51.464;6.968;2023-03-01T05:21:58;-2.20;99.90
22288;DHT22;11312;51.464;6.968;2023-03-01T05:24:28;-2.20;99.90
22288;DHT22;11312;51.464;6.968;2023-03-01T05:26:54;-2.30;99.90
22288;DHT22;11312;51.464;6.968;2023-03-01T05:29:22;-2.30;99.90
22288;DHT22;11312;51.464;6.968;2023-03-01T05:32:02;-2.40;99.90
22288;DHT22;11312;51.464;6.968;2023-03-01T05:34:34;-2.30;99.90
22288;DHT22;11312;51.464;6.968;2023-03-01T05:37:00;-2.40;99.90
22288;DHT22;11312;51.464;6.968;2023-03-01T05:39:28;-2.30;99.90
22288;DHT22;11312;51.464;6.968;2023-03-01T05:41:55;-2.40;99.90
22288;DHT22;11312;51.464;6.968;2023-03-01T05:44:21;-2.30;99.90
22288;DHT22;11312;51.464;6.968;2023-03-01T05:46:47;-2.30;99.90
22288;DHT22;11312;51.464;6.968;2023-03-01T05:49:13;-2.30;99.90
22288;DHT22;11312;51.464;6.968;2023-03-01T05:51:43;-2.30;99.90
22288;DHT22;11312;51.464;6.968;2023-03-01T05:54:12;-2.30;99.90
22288;DHT22;11312;51.464;6.968;2023-03-01T05:56:38;-2.20;99.90
22288;DHT22;11312;51.464;6.968;2023-03-01T05:59:04;-2.30;99.90
22288;DHT22;11312;51.464;6.968;2023-03-01T06:01:34;-2.30;99.90
22288;DHT22;11312;51.464;6.968;2023-03-01T06:04:00;-2.20;99.90
22288;DHT22;11312;51.464;6.968;2023-03-01T06:06:25;-2.30;99.90
22288;DHT22;11312;51.464;6.968;2023-03-01T06:08:52;-2.20;99.90
22288;DHT22;11312;51.464;6.968;2023-03-01T06:11:19;-2.10;99.90
22288;DHT22;11312;51.464;6.968;2023-03-01T06:13:45;-1.90;99.90
22288;DHT22;11312;51.464;6.968;2023-03-01T06:16:11;-2.00;1.00
22288;DHT22;11312;51.464;6.968;2023-03-01T06:18:38;-2.00;1.00
22288;DHT22;11312;51.464;6.968;2023-03-01T06:21:05;-2.10;1.00
22288;DHT22;11312;51.464;6.968;2023-03-01T06:23:31;-2.10;1.00
22288;DHT22;11312;51.464;6.968;2023-03-01T06:25:57;-2.20;1.00
22288;DHT22;11312;51.464;6.968;2023-03-01T06:28:23;-2.30;99.90
22288;DHT22;11312;51.464;6.968;2023-03-01T06:30:49;-2.30;99.90
22288;DHT22;11312;51.464;6.968;2023-03-01T06:33:15;-2.10;99.90
22288;DHT22;11312;51.464;6.968;2023-03-01T06:35:41;-2.20;99.90
22288;DHT22;11312;51.464;6.968;2023-03-01T06:38:07;-2.10;99.90
22288;DHT22;11312;51.464;6.968;2023-03-01T06:40:33;-2.20;99.90
22288;DHT22;11312;51.464;6.968;2023-03-01T06:43:00;-2.00;99.90
22288;DHT22;11312;51.464;6.968;2023-03-01T06:45:26;-2.20;1.00
22288;DHT22;11312;51.464;6.968;2023-03-01T06:47:52;-2.10;1.00
22288;DHT22;11312;51.464;6.968;2023-03-01T06:50:18;-2.00;1.00
22288;DHT22;11312;51.464;6.968;2023-03-01T06:52:44;-2.00;1.00
22288;DHT22;11312;51.464;6.968;2023-03-01T06:55:11;-2.00;1.00
22288;DHT22;11312;51.464;6.968;2023-03-01T06:57:37;-1.90;1.00
22288;DHT22;11312;51.464;6.968;2023-03-01T07:00:05;-1.90;1.00
22288;DHT22;11312;51.464;6.968;2023-03-01T07:02:32;-1.80;1.00
22288;DHT22;11312;51.464;6.968;2023-03-01T07:04:57;-1.70;1.00
22288;DHT22;11312;51.464;6.968;2023-03-01T07:07:23;-1.70;1.00
22288;DHT22;11312;51.464;6.968;2023-03-01T07:09:49;-1.50;1.00
22288;DHT22;11312;51.464;6.968;2023-03-01T07:12:15;-1.50;1.00
22288;DHT22;11312;51.464;6.968;2023-03-01T07:14:41;-1.50;1.00
22288;DHT22;11312;51.464;6.968;2023-03-01T07:17:08;-1.60;1.00
22288;DHT22;11312;51.464;6.968;2023-03-01T07:19:34;-1.60;1.00
22288;DHT22;11312;51.464;6.968;2023-03-01T07:21:59;-1.60;1.00
22288;DHT22;11312;51.464;6.968;2023-03-01T07:24:25;-1.40;1.00
22288;DHT22;11312;51.464;6.968;2023-03-01T07:26:51;-1.50;1.00
22288;DHT22;11312;51.464;6.968;2023-03-01T07:29:18;-1.40;1.00
22288;DHT22;11312;51.464;6.968;2023-03-01T07:31:45;-1.30;1.00
22288;DHT22;11312;51.464;6.968;2023-03-01T07:34:10;-1.30;1.00
22288;DHT22;11312;51.464;6.968;2023-03-01T07:36:37;-1.20;1.00
22288;DHT22;11312;51.464;6.968;2023-03-01T07:39:03;-1.20;99.90
22288;DHT22;11312;51.464;6.968;2023-03-01T07:41:29;-1.10;99.90
22288;DHT22;11312;51.464;6.968;2023-03-01T07:43:55;-0.90;99.90
22288;DHT22;11312;51.464;6.968;2023-03-01T07:46:21;-1.00;99.90
22288;DHT22;11312;51.464;6.968;2023-03-01T07:48:46;-0.80;1.00
22288;DHT22;11312;51.464;6.968;2023-03-01T07:51:12;-0.70;99.90
22288;DHT22;11312;51.464;6.968;2023-03-01T07:53:38;-0.60;99.90
22288;DHT22;11312;51.464;6.968;2023-03-01T07:56:13;-0.60;1.00
22288;DHT22;11312;51.464;6.968;2023-03-01T07:58:41;-0.50;1.00
22288;DHT22;11312;51.464;6.968;2023-03-01T08:01:10;-0.50;99.90
22288;DHT22;11312;51.464;6.968;2023-03-01T08:03:36;-0.30;99.90
22288;DHT22;11312;51.464;6.968;2023-03-01T08:06:04;-0.10;99.90
22288;DHT22;11312;51.464;6.968;2023-03-01T08:08:31;0.40;1.00
22288;DHT22;11312;51.464;6.968;2023-03-01T08:10:58;0.90;92.00
22288;DHT22;11312;51.464;6.968;2023-03-01T08:13:24;1.70;99.90
22288;DHT22;11312;51.464;6.968;2023-03-01T08:15:49;2.90;99.90
22288;DHT22;11312;51.464;6.968;2023-03-01T08:18:16;3.50;99.90
22288;DHT22;11312;51.464;6.968;2023-03-01T08:20:43;4.00;99.90
22288;DHT22;11312;51.464;6.968;2023-03-01T08:23:08;3.70;99.90
22288;DHT22;11312;51.464;6.968;2023-03-01T08:25:34;4.30;99.90
22288;DHT22;11312;51.464;6.968;2023-03-01T08:28:00;4.60;99.90
22288;DHT22;11312;51.464;6.968;2023-03-01T08:30:25;4.70;99.90
22288;DHT22;11312;51.464;6.968;2023-03-01T08:32:51;4.80;99.90
22288;DHT22;11312;51.464;6.968;2023-03-01T08:35:18;4.60;99.90
22288;DHT22;11312;51.464;6.968;2023-03-01T08:37:44;4.30;99.90
22288;DHT22;11312;51.464;6.968;2023-03-01T08:40:10;4.00;99.90
22288;DHT22;11312;51.464;6.968;2023-03-01T08:42:40;4.30;99.90
22288;DHT22;11312;51.464;6.968;2023-03-01T08:45:07;4.00;99.90
22288;DHT22;11312;51.464;6.968;2023-03-01T08:47:33;4.40;99.90
22288;DHT22;11312;51.464;6.968;2023-03-01T08:49:59;4.90;99.90
22288;DHT22;11312;51.464;6.968;2023-03-01T08:52:25;5.00;99.90
22288;DHT22;11312;51.464;6.968;2023-03-01T08:54:51;5.10;99.90
22288;DHT22;11312;51.464;6.968;2023-03-01T08:57:17;5.00;99.90
22288;DHT22;11312;51.464;6.968;2023-03-01T08:59:43;5.50;99.90
22288;DHT22;11312;51.464;6.968;2023-03-01T09:02:12;6.10;99.90
22288;DHT22;11312;51.464;6.968;2023-03-01T09:04:38;6.30;99.90
22288;DHT22;11312;51.464;6.968;2023-03-01T09:07:04;7.10;99.90
22288;DHT22;11312;51.464;6.968;2023-03-01T09:09:29;8.10;99.90
22288;DHT22;11312;51.464;6.968;2023-03-01T09:11:55;7.70;99.90
22288;DHT22;11312;51.464;6.968;2023-03-01T09:14:21;8.60;99.90
22288;DHT22;11312;51.464;6.968;2023-03-01T09:16:46;8.70;99.90
22288;DHT22;11312;51.464;6.968;2023-03-01T09:19:12;8.70;95.90
22288;DHT22;11312;51.464;6.968;2023-03-01T09:21:38;9.00;96.40
22288;DHT22;11312;51.464;6.968;2023-03-01T09:24:04;10.20;99.90
22288;DHT22;11312;51.464;6.968;2023-03-01T09:26:30;11.20;99.40
22288;DHT22;11312;51.464;6.968;2023-03-01T09:28:56;10.90;94.10
22288;DHT22;11312;51.464;6.968;2023-03-01T09:31:23;10.80;94.80
22288;DHT22;11312;51.464;6.968;2023-03-01T09:33:50;11.10;91.40
22288;DHT22;11312;51.464;6.968;2023-03-01T09:36:18;10.60;91.00
22288;DHT22;11312;51.464;6.968;2023-03-01T09:38:45;10.00;90.00
22288;DHT22;11312;51.464;6.968;2023-03-01T09:44:00;10.20;89.70
22288;DHT22;11312;51.464;6.968;2023-03-01T09:46:41;12.10;83.70
22288;DHT22;11312;51.464;6.968;2023-03-01T09:49:14;11.90;75.20
22288;DHT22;11312;51.464;6.968;2023-03-01T09:51:46;12.20;78.00
22288;DHT22;11312;51.464;6.968;2023-03-01T09:54:15;12.90;76.10
22288;DHT22;11312;51.464;6.968;2023-03-01T09:56:42;15.60;76.70
22288;DHT22;11312;51.464;6.968;2023-03-01T10:04:46;15.00;64.20
22288;DHT22;11312;51.464;6.968;2023-03-01T10:09:43;14.70;56.60
22288;DHT22;11312;51.464;6.968;2023-03-01T10:12:34;15.60;61.20
22288;DHT22;11312;51.464;6.968;2023-03-01T10:15:25;14.30;61.10
22288;DHT22;11312;51.464;6.968;2023-03-01T10:18:00;15.30;60.80
22288;DHT22;11312;51.464;6.968;2023-03-01T10:20:43;16.80;61.70
22288;DHT22;11312;51.464;6.968;2023-03-01T10:23:09;17.90;56.70
22288;DHT22;11312;51.464;6.968;2023-03-01T10:28:53;17.10;50.50
22288;DHT22;11312;51.464;6.968;2023-03-01T10:31:26;17.00;53.00
22288;DHT22;11312;51.464;6.968;2023-03-01T10:33:53;17.40;55.50
22288;DHT22;11312;51.464;6.968;2023-03-01T10:36:22;18.80;52.60
22288;DHT22;11312;51.464;6.968;2023-03-01T10:41:17;18.50;48.10
22288;DHT22;11312;51.464;6.968;2023-03-01T10:43:57;18.40;47.80
22288;DHT22;11312;51.464;6.968;2023-03-01T10:46:32;19.30;47.70
22288;DHT22;11312;51.464;6.968;2023-03-01T10:49:17;19.00;45.70
22288;DHT22;11312;51.464;6.968;2023-03-01T10:51:46;20.60;49.10
22288;DHT22;11312;51.464;6.968;2023-03-01T10:54:32;20.80;45.40
22288;DHT22;11312;51.464;6.968;2023-03-01T10:57:03;21.30;43.00
22288;DHT22;11312;51.464;6.968;2023-03-01T10:59:37;19.40;44.70
22288;DHT22;11312;51.464;6.968;2023-03-01T11:04:35;19.20;47.20
22288;DHT22;11312;51.464;6.968;2023-03-01T11:07:02;19.60;45.30
22288;DHT22;11312;51.464;6.968;2023-03-01T11:09:32;17.90;43.60
22288;DHT22;11312;51.464;6.968;2023-03-01T11:12:08;18.90;47.10
22288;DHT22;11312;51.464;6.968;2023-03-01T11:14:39;21.00;46.00
22288;DHT22;11312;51.464;6.968;2023-03-01T11:20:24;20.50;43.40
22288;DHT22;11312;51.464;6.968;2023-03-01T11:22:55;19.60;48.10
22288;DHT22;11312;51.464;6.968;2023-03-01T11:25:43;21.60;44.80
22288;DHT22;11312;51.464;6.968;2023-03-01T11:28:12;21.10;43.00
22288;DHT22;11312;51.464;6.968;2023-03-01T11:30:57;21.90;41.60
22288;DHT22;11312;51.464;6.968;2023-03-01T11:33:44;22.70;40.50
22288;DHT22;11312;51.464;6.968;2023-03-01T11:38:39;22.70;38.40
22288;DHT22;11312;51.464;6.968;2023-03-01T11:41:06;23.30;43.40
22288;DHT22;11312;51.464;6.968;2023-03-01T11:43:48;22.70;41.50
22288;DHT22;11312;51.464;6.968;2023-03-01T11:49:07;24.20;41.10
22288;DHT22;11312;51.464;6.968;2023-03-01T11:57:27;23.50;39.10
22288;DHT22;11312;51.464;6.968;2023-03-01T12:08:51;28.40;46.90
22288;DHT22;11312;51.464;6.968;2023-03-01T12:16:52;28.20;40.10
22288;DHT22;11312;51.464;6.968;2023-03-01T12:24:55;29.70;38.00
22288;DHT22;11312;51.464;6.968;2023-03-01T12:30:38;28.60;35.40
22288;DHT22;11312;51.464;6.968;2023-03-01T12:33:15;29.00;39.00
22288;DHT22;11312;51.464;6.968;2023-03-01T12:38:42;26.30;37.10
22288;DHT22;11312;51.464;6.968;2023-03-01T12:54:36;24.60;33.60
22288;DHT22;11312;51.464;6.968;2023-03-01T12:57:18;24.40;37.40
22288;DHT22;11312;51.464;6.968;2023-03-01T13:02:45;22.80;36.60
22288;DHT22;11312;51.464;6.968;2023-03-01T13:05:29;23.50;41.20
22288;DHT22;11312;51.464;6.968;2023-03-01T13:08:22;23.40;39.10
22288;DHT22;11312;51.464;6.968;2023-03-01T13:10:50;22.60;36.00
22288;DHT22;11312;51.464;6.968;2023-03-01T13:13:21;23.20;37.90
22288;DHT22;11312;51.464;6.968;2023-03-01T13:15:47;23.50;38.00
22288;DHT22;11312;51.464;6.968;2023-03-01T13:20:48;19.90;37.60
22288;DHT22;11312;51.464;6.968;2023-03-01T13:26:09;21.10;38.80
22288;DHT22;11312;51.464;6.968;2023-03-01T13:28:55;21.00;37.90
22288;DHT22;11312;51.464;6.968;2023-03-01T13:33:52;21.90;39.20
22288;DHT22;11312;51.464;6.968;2023-03-01T13:38:58;25.00;45.00
22288;DHT22;11312;51.464;6.968;2023-03-01T13:44:33;25.80;41.60
22288;DHT22;11312;51.464;6.968;2023-03-01T13:47:13;23.60;35.40
22288;DHT22;11312;51.464;6.968;2023-03-01T13:49:58;22.90;35.70
22288;DHT22;11312;51.464;6.968;2023-03-01T13:52:43;22.30;36.40
22288;DHT22;11312;51.464;6.968;2023-03-01T13:57:46;22.10;39.60
22288;DHT22;11312;51.464;6.968;2023-03-01T14:00:38;22.20;39.50
22288;DHT22;11312;51.464;6.968;2023-03-01T14:05:31;21.00;41.80
22288;DHT22;11312;51.464;6.968;2023-03-01T14:07:56;19.90;40.30
22288;DHT22;11312;51.464;6.968;2023-03-01T14:10:25;21.00;41.80
22288;DHT22;11312;51.464;6.968;2023-03-01T14:15:32;21.40;38.70
22288;DHT22;11312;51.464;6.968;2023-03-01T14:20:29;18.90;39.80
22288;DHT22;11312;51.464;6.968;2023-03-01T14:22:59;20.20;42.50
22288;DHT22;11312;51.464;6.968;2023-03-01T14:25:34;18.50;41.30
22288;DHT22;11312;51.464;6.968;2023-03-01T14:30:34;20.00;40.60
22288;DHT22;11312;51.464;6.968;2023-03-01T14:33:04;18.40;41.00
22288;DHT22;11312;51.464;6.968;2023-03-01T14:35:34;19.40;43.40
22288;DHT22;11312;51.464;6.968;2023-03-01T14:38:00;19.40;43.40
22288;DHT22;11312;51.464;6.968;2023-03-01T14:40:34;19.30;43.60
22288;DHT22;11312;51.464;6.968;2023-03-01T14:43:08;19.20;43.00
22288;DHT22;11312;51.464;6.968;2023-03-01T14:45:34;17.70;43.50
22288;DHT22;11312;51.464;6.968;2023-03-01T14:48:02;17.70;44.60
22288;DHT22;11312;51.464;6.968;2023-03-01T14:50:34;17.70;43.90
22288;DHT22;11312;51.464;6.968;2023-03-01T14:53:04;18.10;46.70
22288;DHT22;11312;51.464;6.968;2023-03-01T14:55:40;17.00;43.90
22288;DHT22;11312;51.464;6.968;2023-03-01T14:58:12;16.30;46.20
22288;DHT22;11312;51.464;6.968;2023-03-01T15:00:38;16.20;46.70
22288;DHT22;11312;51.464;6.968;2023-03-01T15:03:17;17.30;47.50
22288;DHT22;11312;51.464;6.968;2023-03-01T15:05:45;16.30;46.10
22288;DHT22;11312;51.464;6.968;2023-03-01T15:08:19;15.80;45.40
22288;DHT22;11312;51.464;6.968;2023-03-01T15:11:17;14.40;47.20
22288;DHT22;11312;51.464;6.968;2023-03-01T15:13:44;15.00;49.10
22288;DHT22;11312;51.464;6.968;2023-03-01T15:18:54;16.00;48.40
22288;DHT22;11312;51.464;6.968;2023-03-01T15:21:25;16.20;48.80
22288;DHT22;11312;51.464;6.968;2023-03-01T15:26:50;15.10;50.80
22288;DHT22;11312;51.464;6.968;2023-03-01T15:29:22;15.10;50.80
22288;DHT22;11312;51.464;6.968;2023-03-01T15:31:57;15.00;52.00
22288;DHT22;11312;51.464;6.968;2023-03-01T15:34:35;13.40;53.00
22288;DHT22;11312;51.464;6.968;2023-03-01T15:37:05;12.40;55.60
22288;DHT22;11312;51.464;6.968;2023-03-01T15:39:39;11.10;56.80
22288;DHT22;11312;51.464;6.968;2023-03-01T15:42:13;10.50;59.90
22288;DHT22;11312;51.464;6.968;2023-03-01T15:47:54;9.20;65.30
22288;DHT22;11312;51.464;6.968;2023-03-01T15:50:27;9.40;65.80
22288;DHT22;11312;51.464;6.968;2023-03-01T15:52:54;9.00;66.50
22288;DHT22;11312;51.464;6.968;2023-03-01T15:55:24;8.90;66.10
22288;DHT22;11312;51.464;6.968;2023-03-01T16:00:30;8.60;67.30
22288;DHT22;11312;51.464;6.968;2023-03-01T16:02:56;8.60;66.40
22288;DHT22;11312;51.464;6.968;2023-03-01T16:05:24;8.60;66.90
22288;DHT22;11312;51.464;6.968;2023-03-01T16:07:51;8.70;68.00
22288;DHT22;11312;51.464;6.968;2023-03-01T16:10:17;8.40;68.10
22288;DHT22;11312;51.464;6.968;2023-03-01T16:12:44;8.10;67.10
22288;DHT22;11312;51.464;6.968;2023-03-01T16:15:30;7.80;67.50
22288;DHT22;11312;51.464;6.968;2023-03-01T16:17:56;7.80;69.10
22288;DHT22;11312;51.464;6.968;2023-03-01T16:20:24;7.80;70.00
22288;DHT22;11312;51.464;6.968;2023-03-01T16:22:50;7.90;70.00
22288;DHT22;11312;51.464;6.968;2023-03-01T16:25:17;7.90;70.90
22288;DHT22;11312;51.464;6.968;2023-03-01T16:27:48;7.80;71.80
22288;DHT22;11312;51.464;6.968;2023-03-01T16:30:15;7.80;71.20
22288;DHT22;11312;51.464;6.968;2023-03-01T16:32:43;7.60;71.20
22288;DHT22;11312;51.464;6.968;2023-03-01T16:35:11;7.30;71.60
22288;DHT22;11312;51.464;6.968;2023-03-01T16:37:37;7.30;75.40
22288;DHT22;11312;51.464;6.968;2023-03-01T16:40:05;7.30;76.80
22288;DHT22;11312;51.464;6.968;2023-03-01T16:42:35;7.30;77.20
22288;DHT22;11312;51.464;6.968;2023-03-01T16:45:01;7.30;75.70
22288;DHT22;11312;51.464;6.968;2023-03-01T16:47:28;7.00;76.30
22288;DHT22;11312;51.464;6.968;2023-03-01T16:49:54;7.00;75.20
22288;DHT22;11312;51.464;6.968;2023-03-01T16:52:21;7.00;76.00
22288;DHT22;11312;51.464;6.968;2023-03-01T16:54:47;6.90;76.20
22288;DHT22;11312;51.464;6.968;2023-03-01T16:57:13;6.90;77.30
22288;DHT22;11312;51.464;6.968;2023-03-01T16:59:39;6.70;78.80
22288;DHT22;11312;51.464;6.968;2023-03-01T17:02:06;6.60;77.60
22288;DHT22;11312;51.464;6.968;2023-03-01T17:04:35;6.90;79.30
22288;DHT22;11312;51.464;6.968;2023-03-01T17:07:00;6.90;80.30
22288;DHT22;11312;51.464;6.968;2023-03-01T17:09:26;6.70;80.50
22288;DHT22;11312;51.464;6.968;2023-03-01T17:11:52;6.60;82.20
22288;DHT22;11312;51.464;6.968;2023-03-01T17:14:18;6.50;81.10
22288;DHT22;11312;51.464;6.968;2023-03-01T17:16:44;6.50;83.90
22288;DHT22;11312;51.464;6.968;2023-03-01T17:19:10;6.40;82.80
22288;DHT22;11312;51.464;6.968;2023-03-01T17:21:38;6.40;81.30
22288;DHT22;11312;51.464;6.968;2023-03-01T17:24:03;6.30;82.40
22288;DHT22;11312;51.464;6.968;2023-03-01T17:26:29;6.10;81.60
22288;DHT22;11312;51.464;6.968;2023-03-01T17:28:55;6.20;86.60
22288;DHT22;11312;51.464;6.968;2023-03-01T17:31:22;6.10;87.60
22288;DHT22;11312;51.464;6.968;2023-03-01T17:33:48;6.00;90.30
22288;DHT22;11312;51.464;6.968;2023-03-01T17:36:15;5.90;90.10
22288;DHT22;11312;51.464;6.968;2023-03-01T17:38:40;5.90;92.20
22288;DHT22;11312;51.464;6.968;2023-03-01T17:41:06;5.80;91.80
22288;DHT22;11312;51.464;6.968;2023-03-01T17:43:32;5.70;92.00
22288;DHT22;11312;51.464;6.968;2023-03-01T17:45:59;5.70;92.70
22288;DHT22;11312;51.464;6.968;2023-03-01T17:48:25;5.70;93.30
22288;DHT22;11312;51.464;6.968;2023-03-01T17:50:51;5.50;93.50